Time;durP1;ratioP1;P1;durP2;ratioP2;P2;SDS_P1;SDS_P2;PMS_P1;PMS_P2;Temp;Humidity;BMP_temperature;BMP_pressure;BME280_temperature;BME280_humidity;BME280_pressure;Samples;Min_cycle;Max_cycle;Signal;HPM_P1;HPM_P2
2021/11/21 00:01:21;;;;;;;29.60;12.52;;;;;;;9.39;87.74;101060.06;4988933;28;20042;-57
2021/11/21 00:03:47;;;;;;;25.95;12.00;;;;;;;9.34;87.81;101066.13;4985817;28;20403;-60
2021/11/21 00:06:14;;;;;;;29.73;13.40;;;;;;;9.35;88.07;101049.03;4986799;28;20034;-59
2021/11/21 00:08:40;;;;;;;26.00;12.73;;;;;;;9.30;88.88;101046.22;4988523;28;20553;-60
2021/11/21 00:11:06;;;;;;;24.45;11.63;;;;;;;9.21;89.40;101044.13;4988354;28;20306;-57
2021/11/21 00:13:32;;;;;;;29.80;13.48;;;;;;;9.18;89.82;101039.25;4989974;28;20495;-59
2021/11/21 00:16:00;;;;;;;28.98;13.88;;;;;;;9.22;89.65;101038.56;4986818;28;20096;-59
2021/11/21 00:18:26;;;;;;;29.50;13.55;;;;;;;9.18;90.16;101031.22;4986931;28;20037;-60
2021/11/21 00:20:52;;;;;;;26.27;12.70;;;;;;;9.28;89.45;101042.97;4996391;28;20523;-59
2021/11/21 00:23:21;;;;;;;29.20;13.75;;;;;;;9.21;89.80;101036.09;4987192;28;20473;-58
2021/11/21 00:25:46;;;;;;;26.20;12.60;;;;;;;9.17;90.02;101035.75;4985228;28;20101;-60
2021/11/21 00:28:12;;;;;;;25.98;13.32;;;;;;;9.11;90.51;101033.19;4988180;28;20472;-63
2021/11/21 00:30:37;;;;;;;27.08;12.48;;;;;;;9.15;91.13;101032.47;4985783;28;20031;-59
2021/11/21 00:33:03;;;;;;;28.73;12.95;;;;;;;9.11;91.06;101031.31;4988523;28;20022;-60
2021/11/21 00:35:28;;;;;;;27.17;12.32;;;;;;;9.03;91.49;101024.47;4986732;28;20101;-63
2021/11/21 00:37:54;;;;;;;27.02;12.45;;;;;;;9.08;91.53;101023.78;4982958;28;20034;-60
2021/11/21 00:40:20;;;;;;;25.98;13.50;;;;;;;8.97;92.30;101022.69;4986411;28;20030;-59
2021/11/21 00:42:45;;;;;;;27.08;13.30;;;;;;;9.04;91.93;101015.41;4986183;28;20034;-57
2021/11/21 00:45:11;;;;;;;26.85;12.43;;;;;;;8.95;92.76;101015.97;4987630;28;20053;-61
2021/11/21 00:47:40;;;;;;;24.80;11.70;;;;;;;9.03;92.04;101015.63;4986591;28;20034;-59
2021/11/21 00:50:07;;;;;;;23.73;11.35;;;;;;;9.05;91.67;101016.22;4986735;28;20559;-57
2021/11/21 00:52:34;;;;;;;24.52;12.07;;;;;;;9.02;92.10;101012.16;4985064;28;20066;-57
2021/11/21 00:55:15;;;;;;;23.55;12.20;;;;;;;9.06;92.02;101010.63;4985712;28;20034;-59
2021/11/21 00:57:42;;;;;;;23.60;12.00;;;;;;;9.08;92.00;101015.75;4984882;28;20022;-59
2021/11/21 01:00:11;;;;;;;27.38;13.60;;;;;;;8.95;92.34;101003.41;4984676;28;20038;-56
2021/11/21 01:02:39;;;;;;;24.05;11.75;;;;;;;9.06;92.01;101010.63;4986533;28;20023;-59
2021/11/21 01:05:07;;;;;;;23.58;10.85;;;;;;;9.08;91.64;101002.38;4986225;28;20026;-58
2021/11/21 01:07:36;;;;;;;24.40;12.00;;;;;;;9.05;91.32;100997.50;4986597;28;20034;-59
2021/11/21 01:10:07;;;;;;;23.10;10.27;;;;;;;9.01;91.47;100999.03;4985006;28;20074;-60
2021/11/21 01:12:33;;;;;;;23.00;10.77;;;;;;;8.99;91.08;100996.59;4986493;28;20138;-61
2021/11/21 01:14:58;;;;;;;22.08;9.55;;;;;;;9.20;90.32;101005.06;4986602;28;20349;-61
2021/11/21 01:17:24;;;;;;;23.83;11.50;;;;;;;9.17;90.79;101003.69;4986769;28;20432;-61
2021/11/21 01:19:50;;;;;;;20.88;9.93;;;;;;;9.18;90.42;100994.63;4985707;28;20528;-59
2021/11/21 01:22:15;;;;;;;22.45;9.75;;;;;;;8.97;92.29;100990.63;4985753;28;20408;-60
2021/11/21 01:24:41;;;;;;;21.90;9.63;;;;;;;8.96;93.02;100996.22;4986593;28;20022;-60
2021/11/21 01:27:07;;;;;;;22.63;11.10;;;;;;;8.96;93.24;100997.03;4987452;28;20221;-55
2021/11/21 01:29:33;;;;;;;22.27;11.38;;;;;;;8.79;94.60;100994.22;4985375;28;20033;-60
2021/11/21 01:31:59;;;;;;;21.90;10.40;;;;;;;8.94;94.04;100992.97;4986445;28;20105;-60
2021/11/21 01:34:25;;;;;;;24.73;11.05;;;;;;;8.88;95.02;100994.69;4985379;28;20105;-60
2021/11/21 01:36:50;;;;;;;26.10;11.07;;;;;;;8.91;95.50;100991.56;4986253;28;20483;-60
2021/11/21 01:39:16;;;;;;;26.08;11.20;;;;;;;8.87;95.77;100977.03;4986026;28;20022;-59
2021/11/21 01:41:42;;;;;;;22.30;10.70;;;;;;;8.86;95.96;100974.59;4986816;28;20041;-62
2021/11/21 01:44:11;;;;;;;24.55;10.00;;;;;;;8.77;96.39;100982.13;4986986;28;20038;-60
2021/11/21 01:46:38;;;;;;;21.90;10.68;;;;;;;8.79;97.12;100974.69;4985310;28;20030;-61
2021/11/21 01:49:05;;;;;;;26.70;11.48;;;;;;;8.79;97.53;100974.69;4986568;28;20372;-60
2021/11/21 01:51:31;;;;;;;26.67;11.05;;;;;;;8.81;97.49;100966.47;4984920;28;20034;-61
2021/11/21 01:53:57;;;;;;;25.55;11.32;;;;;;;8.76;97.27;100959.94;4986624;28;20274;-59
2021/11/21 01:56:26;;;;;;;25.02;11.75;;;;;;;8.78;97.59;100957.03;4985772;28;20472;-60
2021/11/21 01:58:52;;;;;;;25.58;11.98;;;;;;;8.74;97.88;100961.22;4985380;28;20030;-62
2021/11/21 02:01:18;;;;;;;28.50;12.80;;;;;;;8.70;98.19;100955.53;4985175;28;20022;-61
2021/11/21 02:03:43;;;;;;;29.83;13.40;;;;;;;8.67;98.67;100950.66;4984997;28;20472;-62
2021/11/21 02:06:09;;;;;;;26.63;12.25;;;;;;;8.61;98.68;100956.09;4984794;28;20108;-60
2021/11/21 02:08:35;;;;;;;30.95;12.40;;;;;;;8.61;99.54;100940.06;4985381;28;20023;-61
2021/11/21 02:11:00;;;;;;;26.55;12.85;;;;;;;8.52;99.56;100936.13;4985725;28;20598;-61
2021/11/21 02:13:26;;;;;;;31.42;13.10;;;;;;;8.63;99.59;100938.81;4984982;28;20034;-59
2021/11/21 02:15:52;;;;;;;27.75;12.35;;;;;;;8.67;99.46;100933.81;4984849;28;20088;-59
2021/11/21 02:18:17;;;;;;;24.77;11.10;;;;;;;8.74;98.51;100938.00;4986923;28;20022;-59
2021/11/21 02:20:49;;;;;;;28.15;11.75;;;;;;;8.63;98.74;100932.66;4982505;28;20034;-58
2021/11/21 02:23:14;;;;;;;26.15;11.80;;;;;;;8.74;98.60;100932.66;4985136;28;20366;-59
2021/11/21 02:25:40;;;;;;;25.27;10.75;;;;;;;8.72;98.63;100929.41;4984856;28;20084;-61
2021/11/21 02:28:07;;;;;;;25.67;11.50;;;;;;;8.82;98.21;100930.69;4985602;28;20412;-59
2021/11/21 02:30:33;;;;;;;27.15;11.60;;;;;;;8.70;98.41;100923.47;4982710;28;20108;-59
2021/11/21 02:32:58;;;;;;;25.67;11.88;;;;;;;8.71;98.37;100925.09;4983820;28;20480;-60
2021/11/21 02:35:24;;;;;;;29.20;11.48;;;;;;;8.79;98.83;100914.06;4985127;28;20175;-59
2021/11/21 02:37:51;;;;;;;29.65;13.63;;;;;;;8.70;99.56;100914.66;4984879;28;20038;-59
2021/11/21 02:40:19;;;;;;;31.35;12.73;;;;;;;8.65;100.00;100904.66;4985396;28;20026;-59
2021/11/21 02:42:44;;;;;;;25.40;12.93;;;;;;;8.56;100.00;100906.03;4983965;28;20445;-61
2021/11/21 02:45:13;;;;;;;32.63;13.07;;;;;;;8.52;100.00;100899.53;4985466;28;20037;-59
2021/11/21 02:47:39;;;;;;;30.23;13.10;;;;;;;8.57;100.00;100896.16;4984826;28;20034;-61
2021/11/21 02:50:18;;;;;;;39.03;15.05;;;;;;;8.52;100.00;100888.84;4983483;28;20405;-57
2021/11/21 02:52:44;;;;;;;42.65;14.90;;;;;;;8.45;100.00;100888.16;4983999;28;20034;-59
2021/11/21 02:55:10;;;;;;;39.90;15.30;;;;;;;8.44;100.00;100882.00;4986063;28;20022;-61
2021/11/21 02:57:36;;;;;;;41.72;16.00;;;;;;;8.44;100.00;100879.34;4984138;28;20568;-60
2021/11/21 03:00:03;;;;;;;48.65;16.65;;;;;;;8.34;100.00;100876.41;4985251;28;20132;-59
2021/11/21 03:02:29;;;;;;;42.70;16.13;;;;;;;8.37;100.00;100870.59;4984704;28;20040;-61
2021/11/21 03:04:56;;;;;;;37.55;15.55;;;;;;;8.42;100.00;100868.06;4983236;28;20443;-60
2021/11/21 03:07:22;;;;;;;41.33;15.90;;;;;;;8.47;100.00;100862.84;4984626;28;20034;-60
2021/11/21 03:09:51;;;;;;;42.75;16.23;;;;;;;8.46;100.00;100868.44;4984575;28;20036;-60
2021/11/21 03:12:21;;;;;;;39.90;16.55;;;;;;;8.50;100.00;100858.09;4985484;28;20500;-58
2021/11/21 03:14:47;;;;;;;36.50;14.85;;;;;;;8.51;100.00;100865.88;4983779;28;20465;-60
2021/11/21 03:17:13;;;;;;;43.78;15.85;;;;;;;8.52;100.00;100866.69;4984416;28;20121;-61
2021/11/21 03:19:38;;;;;;;42.22;15.75;;;;;;;8.53;100.00;100863.78;4981301;28;20113;-60
2021/11/21 03:22:04;;;;;;;39.30;15.38;;;;;;;8.50;100.00;100856.25;4983392;28;20312;-58
2021/11/21 03:24:29;;;;;;;33.03;14.18;;;;;;;8.57;100.00;100864.94;4985971;28;20080;-63
2021/11/21 03:26:55;;;;;;;41.63;15.35;;;;;;;8.48;100.00;100867.16;4984305;28;20529;-58
2021/11/21 03:29:21;;;;;;;38.90;15.27;;;;;;;8.54;100.00;100864.59;4984550;28;20554;-60
2021/11/21 03:31:46;;;;;;;34.72;15.30;;;;;;;8.43;100.00;100863.53;4983705;28;20030;-60
2021/11/21 03:34:12;;;;;;;35.55;14.88;;;;;;;8.48;100.00;100856.47;4985313;28;20022;-62
2021/11/21 03:36:38;;;;;;;34.92;14.10;;;;;;;8.46;100.00;100865.75;4983636;28;20034;-60
2021/11/21 03:39:04;;;;;;;30.35;13.60;;;;;;;8.53;100.00;100849.63;4984337;28;20320;-60
2021/11/21 03:41:30;;;;;;;35.92;14.45;;;;;;;8.45;100.00;100850.78;4984104;28;20135;-62
2021/11/21 03:43:56;;;;;;;40.10;14.82;;;;;;;8.54;100.00;100849.38;4983769;28;20502;-61
2021/11/21 03:46:23;;;;;;;40.17;15.73;;;;;;;8.48;100.00;100844.97;4981971;28;20030;-60
2021/11/21 03:48:48;;;;;;;39.10;15.75;;;;;;;8.51;100.00;100843.69;4982892;28;20081;-58
2021/11/21 03:51:14;;;;;;;36.17;14.00;;;;;;;8.59;100.00;100840.66;4983445;28;20113;-58
2021/11/21 03:53:40;;;;;;;34.70;14.38;;;;;;;8.71;100.00;100844.16;4984747;28;20113;-58
2021/11/21 03:56:06;;;;;;;37.03;15.15;;;;;;;8.55;100.00;100845.66;4982235;28;20057;-58
2021/11/21 03:58:32;;;;;;;39.63;16.35;;;;;;;8.59;100.00;100835.31;4982388;28;20814;-59
2021/11/21 04:00:59;;;;;;;40.65;15.40;;;;;;;8.63;100.00;100834.66;4983308;28;20027;-58
2021/11/21 04:03:25;;;;;;;36.17;14.15;;;;;;;8.60;100.00;100831.59;4983092;28;20025;-58
2021/11/21 04:05:50;;;;;;;37.70;15.10;;;;;;;8.60;100.00;100832.41;4982630;28;20635;-58
2021/11/21 04:08:16;;;;;;;31.45;14.02;;;;;;;8.63;100.00;100823.16;4988390;28;20463;-58
2021/11/21 04:10:41;;;;;;;39.70;14.73;;;;;;;8.58;100.00;100823.81;4998961;28;20362;-58
2021/11/21 04:13:08;;;;;;;35.10;14.98;;;;;;;8.47;100.00;100811.31;4982684;28;20026;-58
2021/11/21 04:15:34;;;;;;;37.58;14.93;;;;;;;8.47;100.00;100819.31;4983183;28;20559;-59
2021/11/21 04:17:59;;;;;;;37.67;14.52;;;;;;;8.32;100.00;100822.41;4981892;28;20026;-58
2021/11/21 04:20:25;;;;;;;37.92;15.27;;;;;;;8.22;100.00;100814.16;4981774;28;20030;-57
2021/11/21 04:22:51;;;;;;;31.27;12.95;;;;;;;8.24;100.00;100820.06;4983311;28;20424;-58
2021/11/21 04:25:17;;;;;;;30.45;11.65;;;;;;;8.30;100.00;100813.00;4984162;28;20113;-58
2021/11/21 04:27:42;;;;;;;30.27;12.90;;;;;;;8.25;100.00;100807.53;4983024;28;20133;-58
2021/11/21 04:30:13;;;;;;;30.08;13.25;;;;;;;8.26;100.00;100802.00;4983917;28;20329;-57
2021/11/21 04:32:40;;;;;;;33.40;14.52;;;;;;;8.24;100.00;100798.72;4982652;28;20400;-58
2021/11/21 04:35:08;;;;;;;31.13;12.65;;;;;;;8.32;100.00;100794.91;4983948;28;20037;-57
2021/11/21 04:37:34;;;;;;;36.17;13.02;;;;;;;8.34;100.00;100801.66;4980501;28;20031;-58
2021/11/21 04:39:59;;;;;;;31.15;13.15;;;;;;;8.36;100.00;100796.09;4982462;28;20214;-58
2021/11/21 04:42:25;;;;;;;32.33;13.45;;;;;;;8.39;100.00;100790.28;4984040;28;20046;-58
2021/11/21 04:44:51;;;;;;;31.20;13.25;;;;;;;8.30;100.00;100783.66;4985525;28;20041;-57
2021/11/21 04:47:16;;;;;;;31.00;12.90;;;;;;;8.31;100.00;100785.28;4987157;28;20361;-60
2021/11/21 04:49:42;;;;;;;31.33;12.60;;;;;;;8.36;100.00;100782.75;4986195;28;20084;-57
2021/11/21 04:52:08;;;;;;;30.23;14.30;;;;;;;8.28;100.00;100783.06;4985240;28;20046;-58
2021/11/21 04:54:34;;;;;;;31.60;13.27;;;;;;;8.33;100.00;100788.53;4986799;28;20067;-58
2021/11/21 04:56:59;;;;;;;37.78;15.25;;;;;;;8.34;100.00;100790.16;4987202;28;20384;-58
2021/11/21 04:59:25;;;;;;;29.92;13.40;;;;;;;8.34;100.00;100791.00;4986238;28;20450;-58
2021/11/21 05:01:50;;;;;;;27.95;11.70;;;;;;;8.37;100.00;100779.03;4986263;28;20113;-57
2021/11/21 05:04:16;;;;;;;30.00;12.13;;;;;;;8.34;100.00;100782.97;4985466;28;20424;-58
2021/11/21 05:06:42;;;;;;;26.58;12.10;;;;;;;8.43;100.00;100775.41;4985452;28;20095;-58
2021/11/21 05:09:07;;;;;;;29.35;11.88;;;;;;;8.44;100.00;100775.22;4987636;28;20157;-57
2021/11/21 05:11:34;;;;;;;29.33;12.20;;;;;;;8.48;100.00;100772.88;4985793;28;20409;-58
2021/11/21 05:14:01;;;;;;;22.38;10.55;;;;;;;8.41;100.00;100774.84;4985710;28;20464;-57
2021/11/21 05:16:26;;;;;;;27.75;11.10;;;;;;;8.41;100.00;100767.63;4987096;28;20037;-58
2021/11/21 05:18:52;;;;;;;25.25;10.93;;;;;;;8.32;100.00;100758.34;4983188;28;20026;-58
2021/11/21 05:21:18;;;;;;;24.13;9.80;;;;;;;8.22;100.00;100754.63;4985510;28;20038;-58
2021/11/21 05:23:44;;;;;;;26.90;11.50;;;;;;;8.29;100.00;100744.66;5001551;28;20030;-58
2021/11/21 05:26:10;;;;;;;28.52;13.00;;;;;;;8.30;100.00;100748.94;4987642;28;20109;-58
2021/11/21 05:28:35;;;;;;;26.20;10.65;;;;;;;8.35;100.00;100738.41;4984730;28;20623;-58
2021/11/21 05:31:01;;;;;;;27.05;10.93;;;;;;;8.37;100.00;100741.66;4985421;28;20088;-58
2021/11/21 05:33:26;;;;;;;25.02;11.32;;;;;;;8.26;100.00;100729.06;4985200;28;20101;-58
2021/11/21 05:35:52;;;;;;;26.30;11.13;;;;;;;8.38;100.00;100732.59;4984916;28;20084;-58
2021/11/21 05:38:17;;;;;;;27.63;11.55;;;;;;;8.45;100.00;100722.63;4986092;28;20061;-57
2021/11/21 05:40:43;;;;;;;29.33;11.77;;;;;;;8.45;100.00;100731.44;4985376;28;20484;-58
2021/11/21 05:43:08;;;;;;;27.23;11.55;;;;;;;8.49;100.00;100731.78;4985803;28;20093;-58
2021/11/21 05:45:33;;;;;;;25.55;10.90;;;;;;;8.46;99.53;100734.94;4984407;28;20477;-58
2021/11/21 05:47:59;;;;;;;25.67;11.05;;;;;;;8.40;99.97;100730.50;4984098;28;20050;-58
2021/11/21 05:50:25;;;;;;;26.15;11.75;;;;;;;8.41;99.70;100737.47;4984942;28;20018;-58
2021/11/21 05:52:53;;;;;;;25.38;12.27;;;;;;;8.25;100.00;100732.78;4985170;28;20560;-58
2021/11/21 05:55:20;;;;;;;28.33;11.90;;;;;;;8.40;100.00;100735.84;4986120;28;20080;-58
2021/11/21 05:57:46;;;;;;;24.23;11.38;;;;;;;8.45;99.83;100733.31;4984980;28;20027;-58
2021/11/21 06:00:16;;;;;;;27.73;11.90;;;;;;;8.40;99.66;100741.19;4985144;28;20030;-58
2021/11/21 06:02:41;;;;;;;25.08;13.13;;;;;;;8.41;99.82;100743.63;4984258;28;20136;-58
2021/11/21 06:05:08;;;;;;;26.70;11.68;;;;;;;8.37;99.43;100742.47;4984068;28;20042;-58
2021/11/21 06:07:33;;;;;;;27.23;11.48;;;;;;;8.41;99.40;100738.28;4985623;28;20046;-58
2021/11/21 06:10:02;;;;;;;26.63;10.63;;;;;;;8.39;99.09;100756.38;4982816;28;20018;-58
2021/11/21 06:12:28;;;;;;;24.23;11.38;;;;;;;8.40;99.26;100747.34;4985985;28;20122;-58
2021/11/21 06:14:53;;;;;;;22.92;9.98;;;;;;;8.35;99.37;100744.56;4985314;28;20125;-58
2021/11/21 06:17:19;;;;;;;23.33;10.90;;;;;;;8.26;99.46;100745.09;4985471;28;20026;-58
2021/11/21 06:19:46;;;;;;;18.25;9.48;;;;;;;8.24;99.66;100736.50;4982652;28;20419;-58
2021/11/21 06:22:13;;;;;;;26.10;11.55;;;;;;;8.34;99.36;100736.78;4985335;28;20492;-55
2021/11/21 06:24:38;;;;;;;27.13;11.68;;;;;;;8.23;99.13;100732.22;4985188;28;20155;-57
2021/11/21 06:27:05;;;;;;;24.75;11.40;;;;;;;8.24;99.43;100740.00;4985274;28;20126;-57
2021/11/21 06:29:30;;;;;;;25.63;11.90;;;;;;;8.28;99.06;100738.50;4984297;28;20034;-57
2021/11/21 06:31:56;;;;;;;32.38;13.32;;;;;;;8.23;99.50;100742.91;4984656;28;20031;-57
2021/11/21 06:34:22;;;;;;;27.17;11.70;;;;;;;8.30;99.38;100740.94;4983898;28;20085;-57
2021/11/21 06:36:47;;;;;;;29.30;13.55;;;;;;;8.26;99.48;100743.25;4983567;28;20034;-57
2021/11/21 06:39:13;;;;;;;31.80;12.60;;;;;;;8.25;99.00;100736.28;4985686;28;20034;-57
2021/11/21 06:41:38;;;;;;;30.45;13.80;;;;;;;8.23;99.42;100746.38;4983277;28;20153;-58
2021/11/21 06:44:05;;;;;;;25.77;12.95;;;;;;;8.21;99.86;100745.00;4983531;28;20045;-57
2021/11/21 06:46:32;;;;;;;31.13;12.98;;;;;;;8.15;100.00;100749.41;4984001;28;20272;-58
2021/11/21 06:48:58;;;;;;;27.52;12.55;;;;;;;8.17;100.00;100742.78;4981750;28;20030;-57
2021/11/21 06:51:24;;;;;;;27.55;12.27;;;;;;;8.31;99.64;100750.56;4983759;28;20026;-57
2021/11/21 06:53:49;;;;;;;29.52;13.05;;;;;;;8.29;99.87;100748.13;4982896;28;20053;-58
2021/11/21 06:56:17;;;;;;;29.77;12.10;;;;;;;8.22;99.72;100760.75;4982641;28;20561;-57
2021/11/21 06:58:43;;;;;;;30.05;12.80;;;;;;;8.29;99.44;100752.66;4983708;28;20069;-58
2021/11/21 07:01:09;;;;;;;27.20;12.63;;;;;;;8.40;99.35;100758.00;4984015;28;20459;-58
2021/11/21 07:03:35;;;;;;;26.85;11.90;;;;;;;8.24;99.56;100757.88;4982192;28;20030;-57
2021/11/21 07:06:00;;;;;;;26.85;11.73;;;;;;;8.14;100.00;100764.59;4984518;28;20040;-58
2021/11/21 07:08:26;;;;;;;31.48;13.02;;;;;;;8.17;100.00;100760.66;4983332;28;20027;-58
2021/11/21 07:10:52;;;;;;;31.30;13.70;;;;;;;8.18;100.00;100763.09;4983041;28;20550;-58
2021/11/21 07:13:17;;;;;;;32.38;13.18;;;;;;;8.25;99.73;100760.31;4984996;28;20278;-58
2021/11/21 07:15:43;;;;;;;28.85;12.65;;;;;;;8.17;100.00;100755.31;4984436;28;20038;-58
2021/11/21 07:18:08;;;;;;;33.38;14.20;;;;;;;8.26;99.81;100761.94;4983484;28;20033;-57
2021/11/21 07:20:34;;;;;;;29.58;12.57;;;;;;;8.11;100.00;100759.75;4982847;28;20034;-57
2021/11/21 07:23:00;;;;;;;30.85;11.73;;;;;;;8.18;100.00;100763.09;4983936;28;20030;-58
2021/11/21 07:25:26;;;;;;;29.85;11.90;;;;;;;8.21;100.00;100753.00;4983559;28;20025;-58
2021/11/21 07:27:52;;;;;;;30.95;13.57;;;;;;;8.11;100.00;100754.41;4982997;28;20038;-58
2021/11/21 07:30:21;;;;;;;28.15;12.95;;;;;;;8.15;100.00;100755.56;4982243;28;20030;-57
2021/11/21 07:32:47;;;;;;;30.30;12.43;;;;;;;8.19;100.00;100763.91;4983242;28;20036;-58
2021/11/21 07:35:18;;;;;;;28.73;12.77;;;;;;;8.17;100.00;100764.13;4982933;28;20030;-58
2021/11/21 07:37:43;;;;;;;27.23;10.55;;;;;;;8.13;100.00;100767.50;4983235;28;20104;-57
2021/11/21 07:40:10;;;;;;;26.27;12.10;;;;;;;8.08;100.00;100773.53;4982938;28;20513;-58
2021/11/21 07:42:37;;;;;;;30.10;11.98;;;;;;;8.13;100.00;100764.84;4979683;28;20077;-58
2021/11/21 07:45:04;;;;;;;27.98;12.18;;;;;;;8.17;100.00;100764.13;4984438;28;20040;-58
2021/11/21 07:47:29;;;;;;;24.65;10.95;;;;;;;8.24;100.00;100763.19;4981408;28;20040;-58
2021/11/21 07:49:56;;;;;;;26.00;10.82;;;;;;;8.20;100.00;100760.19;4983352;28;20018;-58
2021/11/21 07:52:21;;;;;;;32.08;13.00;;;;;;;8.18;100.00;100771.09;4984389;28;20022;-58
2021/11/21 07:54:47;;;;;;;31.27;12.60;;;;;;;8.14;100.00;100761.94;4985039;28;20095;-58
2021/11/21 07:57:12;;;;;;;31.65;13.38;;;;;;;8.15;100.00;100771.56;4984980;28;20038;-58
2021/11/21 07:59:38;;;;;;;26.83;11.77;;;;;;;8.08;100.00;100773.53;4983244;28;20497;-58
2021/11/21 08:02:03;;;;;;;33.40;13.18;;;;;;;8.07;100.00;100779.09;4980278;28;20497;-57
2021/11/21 08:04:29;;;;;;;29.55;12.30;;;;;;;8.02;100.00;100771.78;4982225;28;20018;-58
2021/11/21 08:06:55;;;;;;;30.88;12.35;;;;;;;8.00;100.00;100776.53;4976138;28;20277;-58
2021/11/21 08:09:20;;;;;;;30.90;13.05;;;;;;;8.07;100.00;100776.41;4982709;28;20102;-58
2021/11/21 08:11:46;;;;;;;28.92;12.30;;;;;;;8.06;100.00;100778.28;4982407;28;20088;-58
2021/11/21 08:14:12;;;;;;;26.77;11.18;;;;;;;8.06;100.00;100783.59;4982409;28;20022;-58
2021/11/21 08:16:37;;;;;;;29.63;11.55;;;;;;;8.08;100.00;100780.75;4982874;28;20213;-57
2021/11/21 08:19:03;;;;;;;34.00;11.32;;;;;;;8.13;100.00;100799.53;4982561;28;20417;-56
2021/11/21 08:21:28;;;;;;;27.17;11.43;;;;;;;8.14;100.00;100788.63;4985419;28;20109;-58
2021/11/21 08:23:54;;;;;;;30.45;12.35;;;;;;;8.14;100.00;100785.16;4986649;28;20040;-58
2021/11/21 08:26:19;;;;;;;29.60;12.02;;;;;;;8.17;100.00;100782.81;4984564;28;20405;-58
2021/11/21 08:28:45;;;;;;;27.67;11.82;;;;;;;8.21;100.00;100790.38;4982057;28;20400;-58
2021/11/21 08:31:10;;;;;;;28.60;11.73;;;;;;;8.20;100.00;100789.53;4997043;28;20026;-58
2021/11/21 08:33:36;;;;;;;26.00;10.98;;;;;;;8.11;100.00;100790.94;4981938;28;20041;-58
2021/11/21 08:36:02;;;;;;;28.88;11.85;;;;;;;8.11;100.00;100797.09;4983531;28;20026;-58
2021/11/21 08:38:28;;;;;;;27.30;11.57;;;;;;;8.18;100.00;100789.78;4983976;28;20034;-58
2021/11/21 08:40:53;;;;;;;26.90;10.23;;;;;;;8.16;100.00;100789.22;4983184;28;20038;-57
2021/11/21 08:43:19;;;;;;;29.85;11.00;;;;;;;8.03;100.00;100786.75;4985465;28;20097;-58
2021/11/21 08:45:45;;;;;;;27.83;11.65;;;;;;;8.11;100.00;100793.63;4985508;28;20034;-60
2021/11/21 08:48:12;;;;;;;29.65;12.20;;;;;;;8.09;100.00;100799.19;4984673;28;20033;-60
2021/11/21 08:50:37;;;;;;;31.10;12.63;;;;;;;8.15;100.00;100795.59;4982743;28;20081;-57
2021/11/21 08:53:03;;;;;;;30.45;11.80;;;;;;;8.19;100.00;100795.94;4983589;28;20043;-61
2021/11/21 08:55:28;;;;;;;29.50;11.63;;;;;;;8.17;100.00;100798.84;4982050;28;20041;-58
2021/11/21 08:57:54;;;;;;;30.02;12.65;;;;;;;8.19;100.00;100802.09;4997678;28;20076;-58
2021/11/21 09:00:20;;;;;;;25.50;10.73;;;;;;;8.16;100.00;100799.88;4982698;28;20532;-59
2021/11/21 09:02:47;;;;;;;26.23;11.52;;;;;;;8.14;100.00;100803.81;4983506;28;20405;-57
2021/11/21 09:05:13;;;;;;;28.45;11.30;;;;;;;8.19;100.00;100793.25;4978708;28;20026;-59
2021/11/21 09:07:41;;;;;;;29.67;12.18;;;;;;;8.21;100.00;100793.03;4980108;28;20485;-59
2021/11/21 09:10:11;;;;;;;27.33;11.95;;;;;;;8.17;100.00;100798.03;4986922;28;20034;-60
2021/11/21 09:12:36;;;;;;;30.38;13.25;;;;;;;8.15;100.00;100808.13;4982691;28;20042;-61
2021/11/21 09:15:03;;;;;;;28.70;12.18;;;;;;;8.19;100.00;100806.59;4984097;28;20532;-58
2021/11/21 09:17:28;;;;;;;31.08;12.30;;;;;;;8.14;100.00;100807.31;4984888;28;20499;-61
2021/11/21 09:19:54;;;;;;;41.03;13.45;;;;;;;8.06;100.00;100815.63;4982435;28;20376;-60
2021/11/21 09:22:20;;;;;;;31.67;13.27;;;;;;;8.09;100.00;100815.19;4983407;28;20389;-62
2021/11/21 09:24:45;;;;;;;33.17;12.15;;;;;;;8.03;100.00;100812.63;4981380;28;20034;-61
2021/11/21 09:27:14;;;;;;;33.13;11.98;;;;;;;7.91;100.00;100820.63;4982168;28;20030;-60
2021/11/21 09:29:41;;;;;;;33.30;13.20;;;;;;;7.94;100.00;100817.50;4985080;28;20644;-58
2021/11/21 09:32:08;;;;;;;30.70;12.07;;;;;;;7.87;100.00;100822.09;4979950;28;20030;-58
2021/11/21 09:34:33;;;;;;;35.85;13.30;;;;;;;7.83;100.00;100816.41;4984202;28;20581;-60
2021/11/21 09:36:59;;;;;;;36.67;12.98;;;;;;;7.87;100.00;100817.56;4984348;28;20120;-59
2021/11/21 09:39:24;;;;;;;33.05;12.43;;;;;;;7.85;100.00;100806.31;4984205;28;20038;-58
2021/11/21 09:41:50;;;;;;;30.23;11.85;;;;;;;7.94;100.00;100808.66;4984440;28;20145;-61
2021/11/21 09:44:15;;;;;;;23.35;9.40;;;;;;;7.91;100.00;100806.47;4985898;28;20488;-59
2021/11/21 09:46:41;;;;;;;24.08;8.88;;;;;;;7.97;100.00;100809.03;4985721;28;20064;-59
2021/11/21 09:51:35;;;;;;;17.83;7.28;;;;;;;8.11;100.00;100797.09;4991397;28;20046;-52
2021/11/21 09:54:01;;;;;;;16.20;4.97;;;;;;;8.17;100.00;100788.16;4999417;28;20030;-50
2021/11/21 09:56:26;;;;;;;18.42;7.55;;;;;;;8.33;100.00;100783.19;5000589;28;20489;-53
2021/11/21 09:58:52;;;;;;;19.30;8.02;;;;;;;8.44;100.00;100790.41;4999297;28;20514;-55
2021/11/21 10:01:37;;;;;;;21.88;9.07;;;;;;;8.37;100.00;100792.38;4999874;28;20026;-53
2021/11/21 10:04:03;;;;;;;21.60;9.70;;;;;;;8.43;100.00;100794.91;4995636;28;20034;-54
2021/11/21 10:06:30;;;;;;;22.40;9.13;;;;;;;8.51;100.00;100791.09;5004124;28;20723;-54
2021/11/21 10:08:56;;;;;;;20.90;8.10;;;;;;;8.50;100.00;100794.00;5001988;28;20057;-54
2021/11/21 10:11:21;;;;;;;17.40;8.20;;;;;;;8.49;100.00;100801.22;5000818;28;20030;-54
2021/11/21 10:13:48;;;;;;;16.63;7.45;;;;;;;8.57;100.00;100805.38;4998421;28;20479;-54
2021/11/21 10:16:17;;;;;;;11.02;4.07;;;;;;;8.48;100.00;100807.59;4999375;28;20030;-54
2021/11/21 10:19:08;;;;;;;10.48;2.40;;;;;;;8.43;97.17;100807.47;4998564;28;20148;-55
2021/11/21 10:21:49;;;;;;;6.47;2.33;;;;;;;8.69;95.36;100803.50;5001373;28;21185;-53
2021/11/21 10:24:29;;;;;;;6.93;2.40;;;;;;;8.82;94.10;100791.78;4994794;28;20088;-51
2021/11/21 10:27:08;;;;;;;8.13;2.72;;;;;;;8.91;93.27;100803.72;4998707;28;20084;-52
2021/11/21 10:29:42;;;;;;;7.25;2.00;;;;;;;9.10;92.06;100799.81;5000670;28;20022;-53
2021/11/21 10:32:18;;;;;;;6.35;2.80;;;;;;;9.07;91.35;100795.78;4998827;28;20042;-51
2021/11/21 10:34:52;;;;;;;5.13;1.63;;;;;;;9.15;90.20;100791.91;5001413;28;20387;-55
2021/11/21 10:37:19;;;;;;;7.13;2.53;;;;;;;9.23;89.48;100799.56;5000314;28;20345;-55
2021/11/21 10:39:47;;;;;;;12.02;4.05;;;;;;;9.34;89.94;100798.72;5001211;28;20026;-53
2021/11/21 10:42:14;;;;;;;15.00;6.10;;;;;;;9.39;89.20;100796.13;5003802;28;20034;-55
2021/11/21 10:44:53;;;;;;;8.10;2.60;;;;;;;9.25;89.34;100797.47;5001896;28;20510;-52
2021/11/21 10:47:18;;;;;;;13.48;4.68;;;;;;;9.26;89.23;100793.72;4994403;28;20468;-52
2021/11/21 10:49:44;;;;;;;10.27;2.47;;;;;;;9.36;90.08;100798.47;5003471;28;20018;-54
2021/11/21 10:52:22;;;;;;;8.65;2.95;;;;;;;9.44;88.36;100797.28;4998606;28;20037;-54
2021/11/21 10:54:53;;;;;;;8.75;2.72;;;;;;;9.30;87.46;100797.53;4998920;28;20257;-51
2021/11/21 10:57:25;;;;;;;6.97;2.10;;;;;;;9.42;87.86;100802.06;5000308;28;20036;-51
2021/11/21 10:59:55;;;;;;;3.80;2.10;;;;;;;9.50;87.64;100805.13;5000481;28;20049;-52
2021/11/21 11:02:37;;;;;;;7.70;2.08;;;;;;;9.60;86.34;100809.88;4997456;28;20034;-51
2021/11/21 11:05:14;;;;;;;5.32;2.17;;;;;;;9.86;85.53;100803.91;5000529;28;20034;-51
2021/11/21 11:08:02;;;;;;;10.55;2.30;;;;;;;9.76;85.08;100794.91;5001586;28;20048;-54
2021/11/21 11:10:33;;;;;;;4.97;2.08;;;;;;;9.85;85.16;100793.44;4994817;28;20030;-53
2021/11/21 11:13:02;;;;;;;9.63;2.08;;;;;;;9.84;84.97;100800.66;4999583;28;20116;-52
2021/11/21 11:15:30;;;;;;;5.20;1.70;;;;;;;9.67;85.90;100807.84;4999715;28;20076;-53